createdAt,value
2016-06-15T00:00:45.674Z,72.38
2016-06-15T00:01:45.772Z,72.86
2016-06-15T00:02:45.728Z,73.11
2016-06-15T00:03:45.684Z,73.21
2016-06-15T00:04:45.953Z,73.3
2016-06-15T00:05:48.597Z,73.11
2016-06-15T00:06:45.537Z,73.3
2016-06-15T00:07:51.353Z,73.69
2016-06-15T00:08:45.465Z,73.69
2016-06-15T00:09:45.437Z,73.69
2016-06-15T00:10:48.347Z,73.69
2016-06-15T00:11:45.318Z,73.44
2016-06-15T00:12:45.259Z,73.34
2016-06-15T00:13:45.214Z,73.54
2016-06-15T00:14:45.375Z,73.24
2016-06-15T00:15:45.128Z,73.15
2016-06-15T00:16:45.068Z,73.34
2016-06-15T00:17:45.024Z,73.15
2016-06-15T00:18:45.027Z,73.34
2016-06-15T00:19:44.937Z,73.05
2016-06-15T00:20:44.893Z,73.05
2016-06-15T00:21:44.850Z,72.96
2016-06-15T00:22:44.789Z,73.05
2016-06-15T00:23:44.575Z,72.96
2016-06-15T00:24:44.702Z,72.86
2016-06-15T00:25:44.862Z,72.86
2016-06-15T00:26:47.817Z,72.96
2016-06-15T00:27:44.571Z,72.96
2016-06-15T00:28:44.510Z,72.86
2016-06-15T00:29:50.483Z,72.96
2016-06-15T00:30:44.407Z,73.05
2016-06-15T00:31:44.567Z,72.86
2016-06-15T00:32:47.523Z,72.96
2016-06-15T00:33:53.120Z,72.96
2016-06-15T00:34:44.233Z,72.96
2016-06-15T00:35:44.017Z,72.86
2016-06-15T00:36:44.130Z,72.86
2016-06-15T00:37:47.085Z,72.96
2016-06-15T00:38:43.885Z,72.96
2016-06-15T00:39:43.999Z,73.15
2016-06-15T00:40:46.955Z,72.96
2016-06-15T00:41:43.910Z,72.67
2016-06-15T00:42:43.867Z,72.86
2016-06-15T00:43:43.807Z,72.67
2016-06-15T00:44:43.779Z,72.96
2016-06-15T00:45:43.735Z,73.05
2016-06-15T00:46:46.660Z,73.05
2016-06-15T00:47:43.601Z,73.34
2016-06-15T00:48:44.463Z,73.15
2016-06-15T00:49:43.888Z,73.72
2016-06-15T00:50:43.469Z,73.72
2016-06-15T00:51:43.442Z,73.72
2016-06-15T00:52:43.381Z,74.01
2016-06-15T00:53:43.338Z,74.01
2016-06-15T00:54:46.295Z,74.4
2016-06-15T00:55:43.548Z,74.45
2016-06-15T00:56:46.191Z,74.45
2016-06-15T00:57:43.257Z,74.36
2016-06-15T00:58:43.134Z,74.93
2016-06-15T00:59:43.111Z,75.07
2016-06-15T01:00:43.120Z,75.12
2016-06-15T01:01:52.127Z,75.26
2016-06-15T01:02:43.291Z,75.02
2016-06-15T01:03:46.281Z,74.93
2016-06-15T01:04:43.016Z,74.74
2016-06-15T01:05:49.360Z,74.93
2016-06-15T01:06:43.157Z,74.68
2016-06-15T01:07:45.939Z,74.77
2016-06-15T01:08:42.885Z,74.87
2016-06-15T01:09:42.832Z,75.16
2016-06-15T01:10:42.808Z,74.68
2016-06-15T01:11:42.754Z,75.73
2016-06-15T01:12:42.714Z,75.45
2016-06-15T01:13:42.673Z,75.6
2016-06-15T01:14:42.631Z,75.83
2016-06-15T01:15:42.557Z,76.02
2016-06-15T01:16:42.531Z,76.75
2016-06-15T01:17:42.488Z,76.4
2016-06-15T01:18:42.446Z,76.5
2016-06-15T01:19:46.168Z,77.13
2016-06-15T01:20:42.360Z,77.13
2016-06-15T01:21:45.317Z,77.33
2016-06-15T01:22:42.258Z,77.51
2016-06-15T01:23:42.214Z,77.8
2016-06-15T01:24:45.171Z,78.19
2016-06-15T01:25:48.142Z,78.38
2016-06-15T01:26:42.083Z,78.47
2016-06-15T01:27:45.024Z,78.57
2016-06-15T01:28:44.995Z,78.76
2016-06-15T01:29:41.937Z,78.95
2016-06-15T01:30:42.204Z,78.95
2016-06-15T01:31:41.833Z,79.33
2016-06-15T01:32:41.788Z,78.95
2016-06-15T01:33:44.761Z,78.95
2016-06-15T01:34:41.701Z,78.95
2016-06-15T01:35:42.111Z,79.43
2016-06-15T01:36:41.597Z,79.52
2016-06-15T01:37:41.554Z,79.33
2016-06-15T01:38:41.510Z,79.24
2016-06-15T01:39:44.467Z,79.24
2016-06-15T01:40:41.423Z,79.87
2016-06-15T01:41:41.363Z,79.24
2016-06-15T01:42:41.351Z,79.24
2016-06-15T01:43:41.260Z,79.72
2016-06-15T01:44:41.217Z,79.62
2016-06-15T01:45:44.188Z,79.62
2016-06-15T01:46:41.128Z,79.81
2016-06-15T01:47:41.069Z,79.62
2016-06-15T01:48:44.041Z,79.81
2016-06-15T01:49:40.998Z,79.14
2016-06-15T01:50:40.782Z,79.24
2016-06-15T01:51:40.879Z,79.05
2016-06-15T01:52:40.850Z,79.33
2016-06-15T01:53:40.838Z,79.72
2016-06-15T01:54:40.747Z,79.62
2016-06-15T01:55:40.703Z,79.33
2016-06-15T01:56:40.644Z,79.68
2016-06-15T01:57:40.615Z,80
2016-06-15T01:58:43.775Z,80.06
2016-06-15T01:59:40.513Z,79.96
2016-06-15T02:00:43.469Z,80.63
2016-06-15T02:01:40.425Z,80.44
2016-06-15T02:02:46.397Z,80.25
2016-06-15T02:03:43.369Z,80.25
2016-06-15T02:04:40.481Z,80.25
2016-06-15T02:05:40.640Z,80.16
2016-06-15T02:06:43.175Z,80.25
2016-06-15T02:07:40.131Z,80.44
2016-06-15T02:08:40.071Z,80.16
2016-06-15T02:09:49.090Z,80.16
2016-06-15T02:10:42.999Z,80.54
2016-06-15T02:11:45.941Z,80.73
2016-06-15T02:12:39.897Z,80.63
2016-06-15T02:13:39.837Z,80.63
2016-06-15T02:14:39.793Z,80.63
2016-06-15T02:15:45.765Z,80.58
2016-06-15T02:16:39.737Z,80.44
2016-06-15T02:17:45.677Z,80.25
2016-06-15T02:18:39.899Z,80.29
2016-06-15T02:19:42.574Z,80.19
2016-06-15T02:20:39.874Z,80.58
2016-06-15T02:21:42.674Z,80.48
2016-06-15T02:22:39.428Z,80.63
2016-06-15T02:23:39.383Z,80.44
2016-06-15T02:24:39.324Z,80.54
2016-06-15T02:25:42.279Z,80.92
2016-06-15T02:26:42.236Z,80.73
2016-06-15T02:27:39.176Z,80.92
2016-06-15T02:28:42.149Z,81.02
2016-06-15T02:29:39.088Z,81.11
2016-06-15T02:30:39.045Z,80.92
2016-06-15T02:31:45.016Z,81.11
2016-06-15T02:32:41.958Z,80.54
2016-06-15T02:33:38.914Z,81.11
2016-06-15T02:34:38.854Z,81.11
2016-06-15T02:35:39.107Z,81.11
2016-06-15T02:36:41.767Z,80.63
2016-06-15T02:37:41.738Z,80.92
2016-06-15T02:38:41.663Z,80.82
2016-06-15T02:39:38.604Z,80.92
2016-06-15T02:40:38.575Z,81.11
2016-06-15T02:41:41.533Z,80.96
2016-06-15T02:42:38.456Z,80.67
2016-06-15T02:43:38.429Z,80.87
2016-06-15T02:44:41.573Z,80.82
2016-06-15T02:45:38.341Z,80.67
2016-06-15T02:46:38.282Z,80.92
2016-06-15T02:47:38.238Z,80.82
2016-06-15T02:48:38.179Z,80.67
2016-06-15T02:49:38.135Z,80.73
2016-06-15T02:50:38.092Z,80.73
2016-06-15T02:51:38.047Z,80.58
2016-06-15T02:52:38.004Z,80.82
2016-06-15T02:53:37.944Z,80.92
2016-06-15T02:54:40.916Z,81.11
2016-06-15T02:55:37.857Z,80.82
2016-06-15T02:56:38.000Z,80.92
2016-06-15T02:57:37.612Z,81.11
2016-06-15T02:58:37.725Z,80.92
2016-06-15T02:59:40.665Z,81.21
2016-06-15T03:00:37.622Z,81.11
2016-06-15T03:01:37.562Z,81.4
2016-06-15T03:02:37.519Z,80.92
2016-06-15T03:03:37.521Z,81.3
2016-06-15T03:04:37.571Z,81.4
2016-06-15T03:05:38.527Z,81.78
2016-06-15T03:06:37.453Z,81.4
2016-06-15T03:07:40.316Z,81.49
2016-06-15T03:08:40.256Z,81.4
2016-06-15T03:09:40.415Z,81.49
2016-06-15T03:10:37.136Z,81.21
2016-06-15T03:11:37.109Z,81.4
2016-06-15T03:12:40.065Z,81.21
2016-06-15T03:13:43.021Z,81.21
2016-06-15T03:14:39.946Z,81.4
2016-06-15T03:15:39.902Z,81.68
2016-06-15T03:16:39.858Z,81.4
2016-06-15T03:17:37.019Z,81.49
2016-06-15T03:18:37.083Z,81.49
2016-06-15T03:19:36.711Z,81.59
2016-06-15T03:20:36.698Z,81.49
2016-06-15T03:21:39.686Z,81.49
2016-06-15T03:22:39.579Z,81.4
2016-06-15T03:23:36.521Z,81.68
2016-06-15T03:24:36.523Z,81.63
2016-06-15T03:25:36.433Z,81.4
2016-06-15T03:26:39.577Z,81.54
2016-06-15T03:27:36.345Z,81.59
2016-06-15T03:28:36.130Z,81.54
2016-06-15T03:29:39.242Z,81.3
2016-06-15T03:30:39.198Z,81.49
2016-06-15T03:31:36.154Z,81.21
2016-06-15T03:32:36.095Z,81.3
2016-06-15T03:33:36.051Z,81.73
2016-06-15T03:34:36.008Z,81.54
2016-06-15T03:35:35.963Z,81.59
2016-06-15T03:36:35.905Z,81.68
2016-06-15T03:37:38.876Z,81.34
2016-06-15T03:38:35.817Z,81.59
2016-06-15T03:39:35.757Z,81.59
2016-06-15T03:40:38.729Z,81.21
2016-06-15T03:41:38.670Z,80.92
2016-06-15T03:42:35.626Z,81.11
2016-06-15T03:43:35.629Z,81.11
2016-06-15T03:44:35.538Z,81.21
2016-06-15T03:45:35.480Z,81.59
2016-06-15T03:46:35.435Z,81.88
2016-06-15T03:47:35.392Z,81.88
2016-06-15T03:48:35.534Z,81.21
2016-06-15T03:49:35.288Z,81.88
2016-06-15T03:50:38.244Z,81.49
2016-06-15T03:51:38.466Z,82.07
2016-06-15T03:52:35.156Z,82.17
2016-06-15T03:53:38.113Z,81.97
2016-06-15T03:54:35.068Z,82.17
2016-06-15T03:55:38.010Z,81.97
2016-06-15T03:56:34.966Z,82.07
2016-06-15T03:57:34.922Z,81.97
2016-06-15T03:58:34.879Z,81.88
2016-06-15T03:59:34.818Z,82.26
2016-06-15T04:00:34.775Z,81.97
2016-06-15T04:01:34.716Z,82.26
2016-06-15T04:02:34.687Z,81.73
2016-06-15T04:03:34.660Z,82.07
2016-06-15T04:04:34.646Z,81.63
2016-06-15T04:05:34.978Z,81.73
2016-06-15T04:06:34.590Z,81.15
2016-06-15T04:07:34.437Z,81.63
2016-06-15T04:08:34.409Z,81.34
2016-06-15T04:09:34.349Z,81.54
2016-06-15T04:10:34.306Z,81.15
2016-06-15T04:11:34.246Z,81.15
2016-06-15T04:12:34.218Z,81.25
2016-06-15T04:13:34.143Z,81.15
2016-06-15T04:14:34.099Z,81.05
2016-06-15T04:15:34.072Z,80.77
2016-06-15T04:16:34.027Z,80.87
2016-06-15T04:17:33.984Z,80.77
2016-06-15T04:18:33.924Z,80.67
2016-06-15T04:19:33.880Z,80.96
2016-06-15T04:20:33.696Z,80.33
2016-06-15T04:21:33.793Z,80.33
2016-06-15T04:22:33.733Z,80.52
2016-06-15T04:23:33.689Z,80.33
2016-06-15T04:24:33.646Z,80.33
2016-06-15T04:25:33.602Z,80.62
2016-06-15T04:26:33.574Z,80.52
2016-06-15T04:27:33.498Z,80.58
2016-06-15T04:28:33.455Z,80.58
2016-06-15T04:29:33.411Z,80.67
2016-06-15T04:30:33.352Z,80.58
2016-06-15T04:31:33.308Z,80.19
2016-06-15T04:32:36.264Z,80.48
2016-06-15T04:33:33.220Z,80.58
2016-06-15T04:34:33.176Z,80.48
2016-06-15T04:35:33.133Z,80.19
2016-06-15T04:36:36.089Z,79.91
2016-06-15T04:37:33.029Z,80.1
2016-06-15T04:38:33.485Z,79.66
2016-06-15T04:39:32.926Z,80.14
2016-06-15T04:40:32.883Z,79.75
2016-06-15T04:41:36.260Z,79.57
2016-06-15T04:42:32.810Z,79.75
2016-06-15T04:43:32.750Z,78.99
2016-06-15T04:44:32.706Z,78.95
2016-06-15T04:45:32.663Z,78.86
2016-06-15T04:46:32.604Z,78.22
2016-06-15T04:47:35.575Z,78.61
2016-06-15T04:48:35.516Z,78.38
2016-06-15T04:49:32.457Z,78.51
2016-06-15T04:50:32.397Z,78.13
2016-06-15T04:51:32.385Z,78.03
2016-06-15T04:52:32.528Z,77.94
2016-06-15T04:53:32.125Z,77.55
2016-06-15T04:54:32.237Z,77.46
2016-06-15T04:55:32.397Z,77.75
2016-06-15T04:56:32.134Z,77.26
2016-06-15T04:57:32.091Z,77.08
2016-06-15T04:58:35.265Z,77.36
2016-06-15T04:59:32.003Z,77.17
2016-06-15T05:00:31.959Z,77.26
2016-06-15T05:01:32.119Z,76.79
2016-06-15T05:02:31.856Z,76.79
2016-06-15T05:03:31.812Z,76.89
2016-06-15T05:04:31.768Z,77.17
2016-06-15T05:05:31.725Z,76.5
2016-06-15T05:06:31.712Z,76.69
2016-06-15T05:07:35.121Z,76.6
2016-06-15T05:08:31.578Z,76.5
2016-06-15T05:09:31.533Z,76.98
2016-06-15T05:10:34.741Z,76.89
2016-06-15T05:11:31.414Z,77.26
2016-06-15T05:12:31.387Z,77.17
2016-06-15T05:13:34.343Z,77.17
2016-06-15T05:14:34.284Z,77.08
2016-06-15T05:15:31.240Z,77.26
2016-06-15T05:16:34.212Z,76.79
2016-06-15T05:17:34.152Z,76.79
2016-06-15T05:18:31.093Z,76.25
2016-06-15T05:19:31.065Z,76.44
2016-06-15T05:20:34.021Z,76.64
2016-06-15T05:21:31.290Z,76.35
2016-06-15T05:22:33.933Z,76.25
2016-06-15T05:23:30.859Z,76.25
2016-06-15T05:24:30.829Z,76.44
2016-06-15T05:25:30.771Z,76.73
2016-06-15T05:26:30.726Z,75.58
2016-06-15T05:27:30.683Z,76.25
2016-06-15T05:28:30.639Z,75.48
2016-06-15T05:29:30.783Z,75.39
2016-06-15T05:30:33.552Z,75.58
2016-06-15T05:31:30.492Z,75.39
2016-06-15T05:32:30.433Z,75.58
2016-06-15T05:33:30.404Z,75.48
2016-06-15T05:34:30.360Z,75.77
2016-06-15T05:35:33.318Z,75.07
2016-06-15T05:36:30.257Z,75.87
2016-06-15T05:37:30.229Z,74.82
2016-06-15T05:38:33.169Z,75.1
2016-06-15T05:39:30.313Z,74.82
2016-06-15T05:40:30.269Z,74.62
2016-06-15T05:41:30.023Z,73.76
2016-06-15T05:42:30.010Z,74.05
2016-06-15T05:43:33.137Z,73.86
2016-06-15T05:44:32.891Z,73.76
2016-06-15T05:45:32.832Z,73.86
2016-06-15T05:46:29.836Z,73.66
2016-06-15T05:47:29.744Z,73.95
2016-06-15T05:48:30.108Z,73.76
2016-06-15T05:49:29.656Z,73.86
2016-06-15T05:50:29.613Z,74.05
2016-06-15T05:51:30.116Z,73.95
2016-06-15T05:52:32.510Z,73.86
2016-06-15T05:53:32.481Z,73.95
2016-06-15T05:54:29.422Z,73.76
2016-06-15T05:55:29.393Z,73.76
2016-06-15T05:56:29.319Z,73.76
2016-06-15T05:57:29.791Z,73.76
2016-06-15T05:58:29.247Z,73.54
2016-06-15T05:59:29.203Z,74.2
2016-06-15T06:00:29.144Z,74.58
2016-06-15T06:01:29.131Z,74.97
2016-06-15T06:02:29.041Z,75.35
2016-06-15T06:03:28.996Z,75.26
2016-06-15T06:04:28.953Z,75.73
2016-06-15T06:05:29.112Z,75.54
2016-06-15T06:06:29.193Z,75.64
2016-06-15T06:07:28.806Z,75.45
2016-06-15T06:08:31.778Z,75.93
2016-06-15T06:09:28.702Z,75.54
2016-06-15T06:10:28.518Z,76.79
2016-06-15T06:11:28.631Z,76.5
2016-06-15T06:12:28.415Z,76.5
2016-06-15T06:13:31.528Z,76.5
2016-06-15T06:14:31.499Z,76.5
2016-06-15T06:15:28.425Z,76.5
2016-06-15T06:16:28.458Z,76.5
2016-06-15T06:17:28.400Z,76.4
2016-06-15T06:18:28.308Z,76.69
2016-06-15T06:19:28.249Z,76.89
2016-06-15T06:20:28.190Z,76.98
2016-06-15T06:21:31.349Z,76.69
2016-06-15T06:22:28.118Z,76.4
2016-06-15T06:23:28.058Z,76.4
2016-06-15T06:24:28.014Z,76.69
2016-06-15T06:25:28.174Z,76.21
2016-06-15T06:26:27.927Z,76.44
2016-06-15T06:27:27.883Z,76.06
2016-06-15T06:28:27.823Z,75.58
2016-06-15T06:29:27.796Z,75.96
2016-06-15T06:30:30.751Z,76.02
2016-06-15T06:31:27.677Z,75.87
2016-06-15T06:32:27.632Z,75.87
2016-06-15T06:33:27.589Z,75.96
2016-06-15T06:34:27.545Z,75.87
2016-06-15T06:35:27.502Z,76.25
2016-06-15T06:36:27.442Z,76.06
2016-06-15T06:37:27.397Z,75.58
2016-06-15T06:38:27.339Z,75.58
2016-06-15T06:39:30.295Z,75.29
2016-06-15T06:40:27.267Z,75.2
2016-06-15T06:41:30.207Z,75.29
2016-06-15T06:42:27.179Z,75.39
2016-06-15T06:43:27.151Z,75.23
2016-06-15T06:44:29.825Z,74.91
2016-06-15T06:45:30.376Z,74.91
2016-06-15T06:46:27.003Z,75.01
2016-06-15T06:47:29.960Z,75.2
2016-06-15T06:48:26.884Z,75.39
2016-06-15T06:49:26.841Z,74.91
2016-06-15T06:50:27.001Z,75.77
2016-06-15T06:51:26.754Z,75.48
2016-06-15T06:52:26.897Z,75.1
2016-06-15T06:53:26.650Z,75.29
2016-06-15T06:54:26.606Z,75.29
2016-06-15T06:55:29.564Z,75.87
2016-06-15T06:56:26.519Z,75.48
2016-06-15T06:57:29.335Z,75.2
2016-06-15T06:58:29.478Z,75.87
2016-06-15T06:59:26.435Z,75.81
2016-06-15T07:00:26.344Z,75.77
2016-06-15T07:01:26.332Z,75.87
2016-06-15T07:02:29.085Z,74.72
2016-06-15T07:03:29.181Z,75.68
2016-06-15T07:04:29.559Z,75.2
2016-06-15T07:05:29.109Z,75.87
2016-06-15T07:06:26.050Z,75.01
2016-06-15T07:07:26.209Z,75.29
2016-06-15T07:08:26.165Z,75.29
2016-06-15T07:09:25.902Z,75.29
2016-06-15T07:10:25.874Z,75.1
2016-06-15T07:11:25.878Z,75.29
2016-06-15T07:12:25.786Z,75.2
2016-06-15T07:13:25.728Z,74.82
2016-06-15T07:14:25.683Z,75.48
2016-06-15T07:15:25.640Z,75.87
2016-06-15T07:16:25.596Z,75.58
2016-06-15T07:17:25.396Z,75.1
2016-06-15T07:18:25.493Z,75.58
2016-06-15T07:19:25.449Z,75.29
2016-06-15T07:20:25.405Z,75.68
2016-06-15T07:21:28.206Z,75.58
2016-06-15T07:22:25.302Z,75.58
2016-06-15T07:23:25.274Z,75.68
2016-06-15T07:24:25.230Z,75.68
2016-06-15T07:25:25.156Z,76.92
2016-06-15T07:26:31.658Z,76.25
2016-06-15T07:27:25.068Z,76.44
2016-06-15T07:28:25.055Z,76.25
2016-06-15T07:29:25.043Z,76.44
2016-06-15T07:30:24.936Z,76.35
2016-06-15T07:31:24.908Z,76.44
2016-06-15T07:32:27.880Z,76.54
2016-06-15T07:33:25.414Z,76.82
2016-06-15T07:34:24.761Z,76.54
2016-06-15T07:35:24.701Z,76.64
2016-06-15T07:36:27.689Z,77.11
2016-06-15T07:37:24.676Z,77.11
2016-06-15T07:38:24.554Z,77.69
2016-06-15T07:39:27.729Z,78.07
2016-06-15T07:40:27.686Z,78.07
2016-06-15T07:41:24.423Z,78.27
2016-06-15T07:42:27.394Z,78.36
2016-06-15T07:43:24.445Z,78.55
2016-06-15T07:44:24.292Z,78.74
2016-06-15T07:45:24.279Z,79.13
2016-06-15T07:46:24.251Z,79.47
2016-06-15T07:47:24.144Z,79.28
2016-06-15T07:48:24.101Z,79.18
2016-06-15T07:49:24.041Z,79.85
2016-06-15T07:50:24.044Z,79.66
2016-06-15T07:51:24.469Z,79.75
2016-06-15T07:52:24.160Z,79.47
2016-06-15T07:53:23.866Z,79.89
2016-06-15T07:54:23.822Z,79.85
2016-06-15T07:55:23.810Z,79.89
2016-06-15T07:56:23.844Z,79.89
2016-06-15T07:57:26.691Z,79.41
2016-06-15T07:58:23.631Z,79.41
2016-06-15T07:59:23.588Z,79.32
2016-06-15T08:00:23.591Z,79.51
2016-06-15T08:01:23.500Z,79.7
2016-06-15T08:02:23.644Z,79.22
2016-06-15T08:03:26.600Z,78.64
2016-06-15T08:04:23.368Z,78.36
2016-06-15T08:05:23.309Z,78.55
2016-06-15T08:06:23.578Z,78.17
2016-06-15T08:07:23.237Z,77.63
2016-06-15T08:08:23.178Z,77.63
2016-06-15T08:09:23.197Z,77.34
2016-06-15T08:10:26.105Z,77.15
2016-06-15T08:11:23.093Z,77.34
2016-06-15T08:12:22.970Z,77.25
2016-06-15T08:13:23.021Z,76.86
2016-06-15T08:14:22.899Z,77.06
2016-06-15T08:15:22.902Z,77.34
2016-06-15T08:16:22.813Z,76.96
2016-06-15T08:17:22.768Z,76.57
2016-06-15T08:18:22.708Z,77.09
2016-06-15T08:19:22.774Z,76.62
2016-06-15T08:20:22.636Z,76.42
2016-06-15T08:21:25.656Z,76.14
2016-06-15T08:22:26.626Z,76.14
2016-06-15T08:23:32.865Z,75.85
2016-06-15T08:24:25.508Z,75.75
2016-06-15T08:25:25.402Z,74.83
2016-06-15T08:26:23.249Z,75.4
2016-06-15T08:27:25.314Z,75.02
2016-06-15T08:28:25.270Z,74.26
2016-06-15T08:29:22.055Z,74.26
2016-06-15T08:30:22.198Z,73.91
2016-06-15T08:31:22.326Z,73.81
2016-06-15T08:32:22.065Z,73.72
2016-06-15T08:33:22.020Z,73.52
2016-06-15T08:34:21.993Z,72.95
2016-06-15T08:35:21.964Z,73.24
2016-06-15T08:36:25.217Z,73.2
2016-06-15T08:37:22.064Z,73
2016-06-15T08:38:21.832Z,72.91
2016-06-15T08:39:21.742Z,73.58
2016-06-15T08:40:21.698Z,73.68
2016-06-15T08:41:21.654Z,73.39
2016-06-15T08:42:21.626Z,72.91
2016-06-15T08:43:21.770Z,72.81
2016-06-15T08:44:21.507Z,72.33
2016-06-15T08:45:21.464Z,72.18
2016-06-15T08:46:21.419Z,71.22
2016-06-15T08:47:21.376Z,70.45
2016-06-15T08:48:21.175Z,70.55
2016-06-15T08:49:21.303Z,70.07
2016-06-15T08:50:21.260Z,70.36
2016-06-15T08:51:21.294Z,70.17
2016-06-15T08:52:21.188Z,70.17
2016-06-15T08:53:24.112Z,70.07
2016-06-15T08:54:21.054Z,70.55
2016-06-15T08:55:21.072Z,69.59
2016-06-15T08:56:20.981Z,68.88
2016-06-15T08:57:20.922Z,68.91
2016-06-15T08:58:20.878Z,68.63
2016-06-15T08:59:20.850Z,68.21
2016-06-15T09:00:25.040Z,68.02
2016-06-15T09:01:28.154Z,67.73
2016-06-15T09:02:20.701Z,67.76
2016-06-15T09:03:20.657Z,67.86
2016-06-15T09:04:20.597Z,67.67
2016-06-15T09:05:20.569Z,67.47
2016-06-15T09:06:20.759Z,66.9
2016-06-15T09:07:20.497Z,66.61
2016-06-15T09:08:20.531Z,66.8
2016-06-15T09:09:20.879Z,66.03
2016-06-15T09:10:20.381Z,66.8
2016-06-15T09:11:23.306Z,66.33
2016-06-15T09:12:23.107Z,66.33
2016-06-15T09:13:24.937Z,66.03
2016-06-15T09:14:20.184Z,66.03
2016-06-15T09:15:20.108Z,66.33
2016-06-15T09:16:23.330Z,66
2016-06-15T09:17:20.099Z,66.33
2016-06-15T09:18:20.025Z,66.67
2016-06-15T09:19:20.121Z,67.63
2016-06-15T09:20:20.092Z,68.02
2016-06-15T09:21:23.112Z,68.69
2016-06-15T09:22:19.817Z,69.62
2016-06-15T09:23:19.962Z,69.71
2016-06-15T09:24:19.714Z,70.57
2016-06-15T09:25:19.858Z,71.31
2016-06-15T09:26:19.610Z,72.27
2016-06-15T09:27:19.583Z,73.22
2016-06-15T09:28:19.711Z,73.9
2016-06-15T09:29:19.333Z,73.95
2016-06-15T09:30:19.430Z,74.43
2016-06-15T09:31:19.433Z,74.82
2016-06-15T09:32:19.343Z,75.68
2016-06-15T09:33:19.378Z,75.68
2016-06-15T09:34:19.239Z,76.4
2016-06-15T09:35:19.712Z,76.69
2016-06-15T09:36:19.152Z,76.98
2016-06-15T09:37:22.389Z,77.26
2016-06-15T09:38:19.064Z,77.55
2016-06-15T09:39:18.848Z,77.75
2016-06-15T09:40:18.961Z,77.99
2016-06-15T09:41:19.105Z,77.99
2016-06-15T09:42:19.139Z,78.47
2016-06-15T09:43:18.845Z,78.19
2016-06-15T09:44:18.801Z,78.38
2016-06-15T09:45:18.930Z,78.86
2016-06-15T09:46:18.698Z,78.66
2016-06-15T09:47:21.842Z,78.95
2016-06-15T09:48:18.485Z,79.14
2016-06-15T09:49:18.630Z,78.95
2016-06-15T09:50:18.569Z,78.66
2016-06-15T09:51:18.464Z,78.57
2016-06-15T09:52:20.733Z,78.47
2016-06-15T09:53:21.376Z,77.99
2016-06-15T09:54:21.331Z,77.9
2016-06-15T09:55:18.304Z,77.7
2016-06-15T09:56:21.620Z,78.38
2016-06-15T09:57:18.154Z,78.38
2016-06-15T09:58:18.157Z,77.8
2016-06-15T09:59:21.083Z,78.09
2016-06-15T10:00:21.038Z,78.09
2016-06-15T10:01:18.010Z,77.42
2016-06-15T10:02:17.934Z,77.51
2016-06-15T10:03:17.875Z,77.46
2016-06-15T10:04:17.866Z,77.36
2016-06-15T10:05:17.706Z,77.08
2016-06-15T10:06:18.155Z,76.79
2016-06-15T10:07:17.871Z,76.31
2016-06-15T10:08:17.819Z,75.73
2016-06-15T10:09:18.022Z,75.54
2016-06-15T10:10:17.759Z,75.45
2016-06-15T10:11:20.759Z,75.93
2016-06-15T10:12:17.714Z,74.68
2016-06-15T10:13:17.670Z,75.73
2016-06-15T10:14:17.636Z,75.35
2016-06-15T10:15:17.597Z,75.1
2016-06-15T10:16:28.918Z,75.2
2016-06-15T10:17:17.520Z,75.29
2016-06-15T10:18:22.919Z,75.29
2016-06-15T10:19:17.426Z,75.2
2016-06-15T10:20:20.603Z,75.1
2016-06-15T10:21:17.342Z,75.1
2016-06-15T10:22:17.394Z,75.01
2016-06-15T10:23:17.305Z,74.33
2016-06-15T10:24:17.216Z,74.43
2016-06-15T10:25:23.392Z,74.82
2016-06-15T10:26:17.317Z,74.62
2016-06-15T10:27:17.069Z,74.57
2016-06-15T10:28:17.230Z,74.85
2016-06-15T10:29:17.515Z,75.23
2016-06-15T10:30:16.924Z,74.76
2016-06-15T10:31:17.099Z,74.47
2016-06-15T10:32:16.853Z,75.04
2016-06-15T10:33:16.778Z,75.04
2016-06-15T10:34:16.766Z,74.85
2016-06-15T10:35:17.066Z,74.85
2016-06-15T10:36:23.413Z,74.47
2016-06-15T10:37:24.933Z,74.47
2016-06-15T10:38:27.216Z,74.76
2016-06-15T10:39:23.922Z,75.23
2016-06-15T10:40:37.317Z,74.95
2016-06-15T10:41:45.726Z,75.23
2016-06-15T10:42:31.713Z,74.76
2016-06-15T10:43:22.982Z,75.27
2016-06-15T10:44:22.594Z,75.08
2016-06-15T10:45:33.535Z,74.41
2016-06-15T10:46:29.226Z,74.51
2016-06-15T10:47:31.150Z,73.83
2016-06-15T10:48:49.637Z,73.83
2016-06-15T10:49:37.813Z,74.35
2016-06-15T10:50:44.613Z,74.06
2016-06-15T10:52:06.710Z,74.26
2016-06-15T10:53:15.310Z,74.26
2016-06-15T10:55:12.316Z,74.39
2016-06-15T10:55:54.347Z,74.29
2016-06-15T10:56:54.147Z,74.01
2016-06-15T10:57:54.056Z,73.72
2016-06-15T10:58:54.012Z,72.66
2016-06-15T10:59:56.985Z,72.47
2016-06-15T11:00:54.129Z,71.98
2016-06-15T11:01:53.897Z,71.89
2016-06-15T11:02:54.338Z,71.51
2016-06-15T11:03:53.794Z,71.8
2016-06-15T11:04:54.062Z,70.84
2016-06-15T11:05:53.784Z,70.74
2016-06-15T11:06:56.882Z,70.36
2016-06-15T11:07:53.603Z,70.26
2016-06-15T11:08:53.574Z,69.78
2016-06-15T11:09:53.610Z,69.78
2016-06-15T11:10:53.487Z,70.07
2016-06-15T11:11:53.803Z,69.68
2016-06-15T11:12:53.400Z,70.26
2016-06-15T11:13:53.669Z,69.97
2016-06-15T11:14:53.311Z,70.17
2016-06-15T11:15:53.253Z,70.1
2016-06-15T11:16:53.178Z,70.1
2016-06-15T11:17:53.477Z,70.68
2016-06-15T11:18:53.122Z,70.68
2016-06-15T11:19:53.077Z,70.29
2016-06-15T11:20:53.066Z,70.2
2016-06-15T11:21:53.381Z,69.72
2016-06-15T11:22:52.992Z,70.14
2016-06-15T11:23:52.886Z,69.72
2016-06-15T11:24:52.843Z,69.75
2016-06-15T11:25:52.798Z,69.75
2016-06-15T11:26:52.740Z,69.66
2016-06-15T11:27:52.712Z,69.75
2016-06-15T11:28:52.651Z,69.75
2016-06-15T11:29:52.624Z,69.27
2016-06-15T11:30:52.564Z,68.89
2016-06-15T11:31:52.552Z,68.79
2016-06-15T11:32:52.461Z,68.79
2016-06-15T11:33:52.464Z,68.89
2016-06-15T11:34:55.373Z,68.57
2016-06-15T11:35:52.346Z,68.28
2016-06-15T11:36:52.286Z,68.76
2016-06-15T11:37:52.445Z,69.05
2016-06-15T11:38:52.416Z,69.81
2016-06-15T11:39:52.169Z,69.72
2016-06-15T11:40:52.110Z,70.78
2016-06-15T11:41:52.067Z,70.64
2016-06-15T11:42:52.226Z,71.61
2016-06-15T11:43:51.995Z,71.8
2016-06-15T11:44:51.951Z,72.08
2016-06-15T11:45:51.892Z,72.18
2016-06-15T11:46:51.864Z,72.85
2016-06-15T11:47:51.835Z,72.85
2016-06-15T11:48:51.963Z,72.85
2016-06-15T11:49:51.717Z,72.95
2016-06-15T11:50:51.688Z,72.75
2016-06-15T11:51:51.676Z,72.85
2016-06-15T11:52:57.726Z,72.56
2016-06-15T11:53:51.542Z,72.56
2016-06-15T11:54:51.685Z,72.43
2016-06-15T11:55:51.562Z,72.53
2016-06-15T11:56:54.426Z,72.47
2016-06-15T11:57:51.382Z,72.37
2016-06-15T11:58:51.400Z,72.05
2016-06-15T11:59:51.279Z,71.7
2016-06-15T12:00:51.516Z,71.89
2016-06-15T12:01:51.176Z,72.08
2016-06-15T12:02:51.210Z,72.02
2016-06-15T12:03:51.073Z,72.02
2016-06-15T12:04:51.044Z,71.45
2016-06-15T12:05:50.999Z,71.1
2016-06-15T12:06:50.941Z,70.9
2016-06-15T12:07:50.943Z,70.9
2016-06-15T12:08:50.869Z,69.79
2016-06-15T12:09:51.028Z,69.89
2016-06-15T12:10:50.781Z,69.5
2016-06-15T12:11:50.737Z,69.69
2016-06-15T12:12:50.693Z,69.15
2016-06-15T12:13:50.634Z,68.96
2016-06-15T12:14:50.794Z,68.76
2016-06-15T12:15:50.750Z,68.38
2016-06-15T12:16:50.502Z,68.38
2016-06-15T12:17:50.458Z,68.09
2016-06-15T12:18:50.415Z,67.51
2016-06-15T12:19:50.372Z,66.74
2016-06-15T12:20:50.421Z,66.84
2016-06-15T12:21:50.268Z,66.94
2016-06-15T12:22:50.255Z,66.94
2016-06-15T12:23:50.180Z,66.46
2016-06-15T12:24:50.137Z,65.63
2016-06-15T12:25:50.077Z,65.43
2016-06-15T12:26:53.049Z,64.86
2016-06-15T12:27:50.021Z,64.95
2016-06-15T12:28:49.977Z,64.76
2016-06-15T12:29:50.028Z,64.63
2016-06-15T12:30:50.077Z,64.34
2016-06-15T12:31:50.080Z,64.92
2016-06-15T12:32:49.817Z,65.01
2016-06-15T12:33:49.742Z,65.08
2016-06-15T12:34:49.699Z,65.27
2016-06-15T12:35:49.671Z,65.27
2016-06-15T12:36:49.610Z,65.17
2016-06-15T12:37:49.942Z,65.27
2016-06-15T12:38:49.570Z,65.75
2016-06-15T12:39:49.511Z,65.91
2016-06-15T12:40:49.437Z,66
2016-06-15T12:41:49.220Z,66.3
2016-06-15T12:42:49.332Z,66.84
2016-06-15T12:43:49.288Z,67.22
2016-06-15T12:44:49.245Z,67.51
2016-06-15T12:45:49.327Z,68.18
2016-06-15T12:46:52.173Z,68.95
2016-06-15T12:47:48.973Z,70.17
2016-06-15T12:48:49.069Z,72.14
2016-06-15T12:49:49.026Z,83.47
2016-06-15T12:50:52.013Z,95.41
2016-06-15T12:51:48.970Z,82.32
2016-06-15T12:52:48.894Z,73.38
2016-06-15T12:53:48.835Z,68.3
2016-06-15T12:54:48.792Z,66.74
2016-06-15T12:55:52.169Z,65.68
2016-06-15T12:56:48.703Z,62.4